Time;durP1;ratioP1;P1;durP2;ratioP2;P2;SDS_P1;SDS_P2;PMS_P1;PMS_P2;Temp;Humidity;BMP_temperature;BMP_pressure;BME280_temperature;BME280_humidity;BME280_pressure;Samples;Min_cycle;Max_cycle;Signal;HPM_P1;HPM_P2
2023/01/11 00:03:18;;;;;;;;;;;;;;;18.34;46.31;100516.03;10500379;28;1910;-58
2023/01/11 00:08:20;;;;;;;;;;;;;;;18.34;46.39;100513.38;10499522;28;1014;-58
2023/01/11 00:13:21;;;;;;;;;;;;;;;18.34;46.23;100501.91;10500672;28;1189;-59
2023/01/11 00:18:21;;;;;;;;;;;;;;;18.33;45.95;100494.91;10482091;28;856;-58
2023/01/11 00:23:21;;;;;;;;;;;;;;;18.31;46.13;100486.25;10499112;28;1906;-57
2023/01/11 00:28:21;;;;;;;;;;;;;;;18.27;46.02;100479.50;10500050;28;843;-58
2023/01/11 00:33:21;;;;;;;;;;;;;;;18.25;46.21;100482.31;10488651;28;1185;-58
2023/01/11 00:48:59;;;;;;;;;;;;;;;18.19;46.05;100472.22;10509042;28;658;-59
2023/01/11 00:53:59;;;;;;;;;;;;;;;18.20;46.15;100463.28;10507315;28;1197;-57
2023/01/11 00:59:00;;;;;;;;;;;;;;;18.18;46.16;100461.72;10505820;28;888;-57
2023/01/11 01:04:00;;;;;;;;;;;;;;;18.19;46.08;100458.09;10505734;28;1959;-59
2023/01/11 01:09:00;;;;;;;;;;;;;;;18.17;46.01;100452.06;10505404;28;910;-57
2023/01/11 01:19:21;;;;;;;;;;;;;;;18.15;46.04;100436.28;10505118;28;1887;-58
2023/01/11 01:24:21;;;;;;;;;;;;;;;18.17;46.04;100441.44;10505545;28;1200;-58
2023/01/11 01:29:21;;;;;;;;;;;;;;;18.14;46.10;100442.56;10505298;28;788;-58
2023/01/11 01:34:22;;;;;;;;;;;;;;;18.11;45.91;100441.03;10505356;28;1281;-60
2023/01/11 01:39:22;;;;;;;;;;;;;;;18.10;46.10;100427.88;10504605;28;1947;-58
2023/01/11 01:44:42;;;;;;;;;;;;;;;18.08;46.03;100430.66;10504427;28;1156;-58
2023/01/11 01:49:43;;;;;;;;;;;;;;;18.07;45.77;100422.84;10463647;28;1443;-57
2023/01/11 01:54:43;;;;;;;;;;;;;;;18.07;45.94;100406.91;10485846;28;1199;-58
2023/01/11 01:59:44;;;;;;;;;;;;;;;18.10;45.86;100393.31;10486157;28;1977;-58
2023/01/11 02:04:44;;;;;;;;;;;;;;;18.13;45.58;100393.06;10503243;28;1259;-58
2023/01/11 02:09:51;;;;;;;;;;;;;;;18.13;45.82;100385.09;10485379;28;912;-57
2023/01/11 02:14:51;;;;;;;;;;;;;;;18.12;45.68;100373.63;10502784;28;1277;-58
2023/01/11 02:20:01;;;;;;;;;;;;;;;18.14;45.76;100378.81;10485504;28;1964;-59
2023/01/11 02:25:21;;;;;;;;;;;;;;;18.15;45.73;100369.84;10502495;28;1189;-60
2023/01/11 02:30:23;;;;;;;;;;;;;;;18.13;45.54;100356.69;10501526;28;1258;-59
2023/01/11 02:35:24;;;;;;;;;;;;;;;18.13;45.60;100348.72;10502021;28;1192;-58
2023/01/11 02:40:26;;;;;;;;;;;;;;;18.12;45.62;100346.19;10502349;28;1910;-58
2023/01/11 02:45:39;;;;;;;;;;;;;;;18.11;45.59;100341.88;10501717;28;1189;-58
2023/01/11 02:50:50;;;;;;;;;;;;;;;18.09;45.35;100327.88;10502600;28;934;-58
2023/01/11 02:55:52;;;;;;;;;;;;;;;18.05;45.51;100322.00;10483588;28;1031;-58
2023/01/11 03:00:54;;;;;;;;;;;;;;;18.04;45.58;100309.72;10501536;28;1965;-58
2023/01/11 03:05:54;;;;;;;;;;;;;;;18.03;45.57;100294.75;10483967;28;840;-58
2023/01/11 03:10:57;;;;;;;;;;;;;;;18.03;45.41;100292.09;10501435;28;1290;-58
2023/01/11 03:16:13;;;;;;;;;;;;;;;18.05;45.40;100286.63;10500615;28;967;-58
2023/01/11 03:21:27;;;;;;;;;;;;;;;18.07;45.31;100263.44;10500874;28;1905;-58
2023/01/11 03:26:30;;;;;;;;;;;;;;;18.06;45.49;100264.41;10483180;28;816;-59
2023/01/11 03:31:35;;;;;;;;;;;;;;;18.05;45.46;100250.28;10501240;28;1306;-60
2023/01/11 03:36:42;;;;;;;;;;;;;;;18.02;45.38;100242.59;10500311;28;889;-60
2023/01/11 03:41:42;;;;;;;;;;;;;;;18.00;45.48;100233.09;10482632;28;1910;-58
2023/01/11 03:46:50;;;;;;;;;;;;;;;17.99;45.47;100228.75;10486091;28;1121;-58
2023/01/11 03:51:50;;;;;;;;;;;;;;;17.99;45.60;100221.63;10482066;28;1265;-57
2023/01/11 03:57:22;;;;;;;;;;;;;;;17.95;45.49;100209.59;10499791;28;931;-59
2023/01/11 04:02:27;;;;;;;;;;;;;;;17.94;45.45;100199.94;10456047;28;1910;-58
2023/01/11 04:07:27;;;;;;;;;;;;;;;17.95;45.38;100185.69;10508498;28;941;-58
2023/01/11 04:12:27;;;;;;;;;;;;;;;17.98;45.36;100180.09;10507748;28;1277;-58
2023/01/11 04:17:27;;;;;;;;;;;;;;;17.99;45.22;100167.66;10508633;28;960;-57
2023/01/11 04:22:28;;;;;;;;;;;;;;;17.99;45.40;100143.75;10507823;28;1961;-58
2023/01/11 04:27:28;;;;;;;;;;;;;;;17.99;45.33;100128.66;10507209;28;930;-58
2023/01/11 04:32:28;;;;;;;;;;;;;;;17.98;45.40;100104.88;10507930;28;1275;-58
2023/01/11 04:37:28;;;;;;;;;;;;;;;17.97;45.36;100096.06;10507055;28;1033;-57
2023/01/11 04:42:28;;;;;;;;;;;;;;;17.98;45.14;100087.13;10507336;28;1906;-57
2023/01/11 04:47:29;;;;;;;;;;;;;;;17.95;45.24;100079.44;10506158;28;1469;-57
2023/01/11 04:52:29;;;;;;;;;;;;;;;17.93;45.33;100064.63;10506118;28;1202;-58
2023/01/11 04:57:29;;;;;;;;;;;;;;;17.93;45.25;100051.34;10488374;28;967;-58
2023/01/11 05:02:29;;;;;;;;;;;;;;;17.95;45.25;100036.94;10506095;28;1967;-57
2023/01/11 05:07:29;;;;;;;;;;;;;;;17.98;45.11;100018.06;10505986;28;918;-57
2023/01/11 05:12:30;;;;;;;;;;;;;;;18.04;45.95;100006.00;10510159;28;1310;-61
